sensor_id;sensor_type;location;lat;lon;timestamp;P1;durP1;ratioP1;P2;durP2;ratioP2
71038;SDS011;58692;43.212;27.908;2023-04-24T00:00:32;29.30;;;15.30;;
71038;SDS011;58692;43.212;27.908;2023-04-24T00:02:58;29.77;;;16.50;;
71038;SDS011;58692;43.212;27.908;2023-04-24T00:05:23;36.70;;;22.67;;
71038;SDS011;58692;43.212;27.908;2023-04-24T00:07:49;33.45;;;20.92;;
71038;SDS011;58692;43.212;27.908;2023-04-24T00:10:19;19.20;;;11.90;;
71038;SDS011;58692;43.212;27.908;2023-04-24T00:12:44;23.90;;;11.77;;
71038;SDS011;58692;43.212;27.908;2023-04-24T00:15:10;17.93;;;9.33;;
71038;SDS011;58692;43.212;27.908;2023-04-24T00:17:36;18.75;;;9.55;;
71038;SDS011;58692;43.212;27.908;2023-04-24T00:20:02;14.90;;;8.43;;
71038;SDS011;58692;43.212;27.908;2023-04-24T00:22:29;19.55;;;9.63;;
71038;SDS011;58692;43.212;27.908;2023-04-24T00:24:56;20.48;;;10.82;;
71038;SDS011;58692;43.212;27.908;2023-04-24T00:27:22;18.13;;;9.70;;
71038;SDS011;58692;43.212;27.908;2023-04-24T00:29:48;17.65;;;9.43;;
71038;SDS011;58692;43.212;27.908;2023-04-24T00:32:14;20.25;;;11.30;;
71038;SDS011;58692;43.212;27.908;2023-04-24T00:34:39;25.30;;;12.40;;
71038;SDS011;58692;43.212;27.908;2023-04-24T00:37:05;23.55;;;12.20;;
71038;SDS011;58692;43.212;27.908;2023-04-24T00:39:31;18.27;;;10.17;;
71038;SDS011;58692;43.212;27.908;2023-04-24T00:41:56;21.38;;;11.95;;
71038;SDS011;58692;43.212;27.908;2023-04-24T00:44:22;27.80;;;15.83;;
71038;SDS011;58692;43.212;27.908;2023-04-24T00:46:48;29.38;;;18.58;;
71038;SDS011;58692;43.212;27.908;2023-04-24T00:49:19;35.47;;;22.55;;
71038;SDS011;58692;43.212;27.908;2023-04-24T00:51:45;37.67;;;23.52;;
71038;SDS011;58692;43.212;27.908;2023-04-24T00:54:12;33.45;;;19.48;;
71038;SDS011;58692;43.212;27.908;2023-04-24T00:56:38;30.53;;;16.33;;
71038;SDS011;58692;43.212;27.908;2023-04-24T00:59:05;24.20;;;14.00;;
71038;SDS011;58692;43.212;27.908;2023-04-24T01:01:31;28.95;;;14.73;;
71038;SDS011;58692;43.212;27.908;2023-04-24T01:03:57;31.50;;;15.68;;
71038;SDS011;58692;43.212;27.908;2023-04-24T01:06:23;31.13;;;16.45;;
71038;SDS011;58692;43.212;27.908;2023-04-24T01:08:53;29.70;;;16.43;;
71038;SDS011;58692;43.212;27.908;2023-04-24T01:11:20;29.85;;;16.35;;
71038;SDS011;58692;43.212;27.908;2023-04-24T01:13:47;30.38;;;16.02;;
71038;SDS011;58692;43.212;27.908;2023-04-24T01:16:13;22.48;;;13.90;;
71038;SDS011;58692;43.212;27.908;2023-04-24T01:18:40;24.70;;;12.93;;
71038;SDS011;58692;43.212;27.908;2023-04-24T01:21:06;28.93;;;12.83;;
71038;SDS011;58692;43.212;27.908;2023-04-24T01:23:33;24.48;;;13.15;;
71038;SDS011;58692;43.212;27.908;2023-04-24T01:26:00;22.42;;;13.52;;
71038;SDS011;58692;43.212;27.908;2023-04-24T01:28:25;29.48;;;13.60;;
71038;SDS011;58692;43.212;27.908;2023-04-24T01:30:51;28.03;;;13.53;;
71038;SDS011;58692;43.212;27.908;2023-04-24T01:33:18;24.23;;;13.02;;
71038;SDS011;58692;43.212;27.908;2023-04-24T01:35:46;28.55;;;13.15;;
71038;SDS011;58692;43.212;27.908;2023-04-24T01:38:13;22.23;;;13.10;;
71038;SDS011;58692;43.212;27.908;2023-04-24T01:40:38;25.40;;;12.93;;
71038;SDS011;58692;43.212;27.908;2023-04-24T01:43:04;22.67;;;11.97;;
71038;SDS011;58692;43.212;27.908;2023-04-24T01:45:30;23.95;;;11.75;;
71038;SDS011;58692;43.212;27.908;2023-04-24T01:47:55;22.63;;;11.93;;
71038;SDS011;58692;43.212;27.908;2023-04-24T01:50:21;19.85;;;10.95;;
71038;SDS011;58692;43.212;27.908;2023-04-24T01:52:47;20.92;;;10.93;;
71038;SDS011;58692;43.212;27.908;2023-04-24T01:55:12;19.37;;;10.30;;
71038;SDS011;58692;43.212;27.908;2023-04-24T01:57:38;20.80;;;10.40;;
71038;SDS011;58692;43.212;27.908;2023-04-24T02:00:03;20.35;;;9.80;;
71038;SDS011;58692;43.212;27.908;2023-04-24T02:02:29;19.47;;;9.87;;
71038;SDS011;58692;43.212;27.908;2023-04-24T02:04:55;22.55;;;10.95;;
71038;SDS011;58692;43.212;27.908;2023-04-24T02:07:22;20.00;;;10.73;;
71038;SDS011;58692;43.212;27.908;2023-04-24T02:09:47;21.47;;;11.47;;
71038;SDS011;58692;43.212;27.908;2023-04-24T02:12:14;24.42;;;11.68;;
71038;SDS011;58692;43.212;27.908;2023-04-24T02:14:40;25.08;;;11.43;;
71038;SDS011;58692;43.212;27.908;2023-04-24T02:17:05;25.57;;;11.27;;
71038;SDS011;58692;43.212;27.908;2023-04-24T02:19:31;26.50;;;12.30;;
71038;SDS011;58692;43.212;27.908;2023-04-24T02:21:57;28.50;;;12.83;;
71038;SDS011;58692;43.212;27.908;2023-04-24T02:24:23;26.92;;;12.82;;
71038;SDS011;58692;43.212;27.908;2023-04-24T02:26:48;23.63;;;12.50;;
71038;SDS011;58692;43.212;27.908;2023-04-24T02:29:14;25.80;;;12.90;;
71038;SDS011;58692;43.212;27.908;2023-04-24T02:31:40;28.23;;;12.23;;
71038;SDS011;58692;43.212;27.908;2023-04-24T02:34:05;23.10;;;12.48;;
71038;SDS011;58692;43.212;27.908;2023-04-24T02:36:31;19.37;;;11.03;;
71038;SDS011;58692;43.212;27.908;2023-04-24T02:38:56;21.47;;;9.30;;
71038;SDS011;58692;43.212;27.908;2023-04-24T02:41:22;13.13;;;7.43;;
71038;SDS011;58692;43.212;27.908;2023-04-24T02:43:47;14.93;;;7.67;;
71038;SDS011;58692;43.212;27.908;2023-04-24T02:46:13;15.17;;;6.63;;
71038;SDS011;58692;43.212;27.908;2023-04-24T02:48:39;16.90;;;6.10;;
71038;SDS011;58692;43.212;27.908;2023-04-24T02:51:04;15.00;;;6.67;;
71038;SDS011;58692;43.212;27.908;2023-04-24T02:53:30;15.52;;;6.72;;
71038;SDS011;58692;43.212;27.908;2023-04-24T02:55:55;14.13;;;6.17;;
71038;SDS011;58692;43.212;27.908;2023-04-24T02:58:21;14.85;;;5.80;;
71038;SDS011;58692;43.212;27.908;2023-04-24T03:00:47;14.90;;;5.70;;
71038;SDS011;58692;43.212;27.908;2023-04-24T03:03:13;11.82;;;6.10;;
71038;SDS011;58692;43.212;27.908;2023-04-24T03:05:39;13.25;;;5.93;;
71038;SDS011;58692;43.212;27.908;2023-04-24T03:08:04;13.60;;;6.17;;
71038;SDS011;58692;43.212;27.908;2023-04-24T03:10:30;15.33;;;6.10;;
71038;SDS011;58692;43.212;27.908;2023-04-24T03:12:55;13.43;;;5.88;;
71038;SDS011;58692;43.212;27.908;2023-04-24T03:15:21;15.00;;;5.50;;
71038;SDS011;58692;43.212;27.908;2023-04-24T03:17:46;15.68;;;5.20;;
71038;SDS011;58692;43.212;27.908;2023-04-24T03:20:12;12.30;;;4.97;;
71038;SDS011;58692;43.212;27.908;2023-04-24T03:22:38;16.80;;;5.60;;
71038;SDS011;58692;43.212;27.908;2023-04-24T03:25:04;17.07;;;5.60;;
71038;SDS011;58692;43.212;27.908;2023-04-24T03:27:30;13.45;;;5.50;;
71038;SDS011;58692;43.212;27.908;2023-04-24T03:29:55;13.33;;;5.30;;
71038;SDS011;58692;43.212;27.908;2023-04-24T03:32:21;13.88;;;5.28;;
71038;SDS011;58692;43.212;27.908;2023-04-24T03:34:48;13.17;;;5.37;;
71038;SDS011;58692;43.212;27.908;2023-04-24T03:37:14;12.13;;;5.40;;
71038;SDS011;58692;43.212;27.908;2023-04-24T03:39:40;11.90;;;5.18;;
71038;SDS011;58692;43.212;27.908;2023-04-24T03:42:06;11.57;;;5.70;;
71038;SDS011;58692;43.212;27.908;2023-04-24T03:44:31;15.10;;;6.32;;
71038;SDS011;58692;43.212;27.908;2023-04-24T03:46:57;15.63;;;6.37;;
71038;SDS011;58692;43.212;27.908;2023-04-24T03:49:23;13.80;;;6.70;;
71038;SDS011;58692;43.212;27.908;2023-04-24T03:51:48;11.63;;;7.30;;
71038;SDS011;58692;43.212;27.908;2023-04-24T03:54:14;15.90;;;6.53;;
71038;SDS011;58692;43.212;27.908;2023-04-24T03:56:39;16.52;;;6.85;;
71038;SDS011;58692;43.212;27.908;2023-04-24T03:59:05;16.87;;;6.47;;
71038;SDS011;58692;43.212;27.908;2023-04-24T04:01:30;13.47;;;6.13;;
71038;SDS011;58692;43.212;27.908;2023-04-24T04:03:56;12.43;;;6.30;;
71038;SDS011;58692;43.212;27.908;2023-04-24T04:06:21;14.77;;;6.30;;
71038;SDS011;58692;43.212;27.908;2023-04-24T04:08:47;14.57;;;7.13;;
71038;SDS011;58692;43.212;27.908;2023-04-24T04:11:12;17.08;;;7.72;;
71038;SDS011;58692;43.212;27.908;2023-04-24T04:13:38;22.07;;;7.63;;
71038;SDS011;58692;43.212;27.908;2023-04-24T04:16:05;15.32;;;6.15;;
71038;SDS011;58692;43.212;27.908;2023-04-24T04:18:32;14.43;;;6.13;;
71038;SDS011;58692;43.212;27.908;2023-04-24T04:20:58;13.32;;;5.65;;
71038;SDS011;58692;43.212;27.908;2023-04-24T04:23:26;14.23;;;5.88;;
71038;SDS011;58692;43.212;27.908;2023-04-24T04:26:04;18.30;;;6.13;;
71038;SDS011;58692;43.212;27.908;2023-04-24T04:28:51;21.30;;;7.38;;
71038;SDS011;58692;43.212;27.908;2023-04-24T04:31:28;18.65;;;5.93;;
71038;SDS011;58692;43.212;27.908;2023-04-24T04:33:54;20.20;;;5.82;;
71038;SDS011;58692;43.212;27.908;2023-04-24T04:36:20;17.63;;;6.67;;
71038;SDS011;58692;43.212;27.908;2023-04-24T04:38:45;12.82;;;5.22;;
71038;SDS011;58692;43.212;27.908;2023-04-24T04:41:11;14.63;;;6.07;;
71038;SDS011;58692;43.212;27.908;2023-04-24T04:43:36;15.83;;;5.70;;
71038;SDS011;58692;43.212;27.908;2023-04-24T04:46:04;14.98;;;5.38;;
71038;SDS011;58692;43.212;27.908;2023-04-24T04:48:30;12.90;;;5.28;;
71038;SDS011;58692;43.212;27.908;2023-04-24T04:50:58;12.70;;;5.15;;
71038;SDS011;58692;43.212;27.908;2023-04-24T04:53:24;13.90;;;5.37;;
71038;SDS011;58692;43.212;27.908;2023-04-24T04:55:50;12.10;;;4.90;;
71038;SDS011;58692;43.212;27.908;2023-04-24T04:58:16;11.57;;;5.18;;
71038;SDS011;58692;43.212;27.908;2023-04-24T05:00:42;10.03;;;4.60;;
71038;SDS011;58692;43.212;27.908;2023-04-24T05:03:07;9.60;;;4.43;;
71038;SDS011;58692;43.212;27.908;2023-04-24T05:05:36;10.63;;;4.65;;
71038;SDS011;58692;43.212;27.908;2023-04-24T05:08:07;10.82;;;4.57;;
71038;SDS011;58692;43.212;27.908;2023-04-24T05:10:33;12.65;;;4.88;;
71038;SDS011;58692;43.212;27.908;2023-04-24T05:13:00;10.10;;;4.67;;
71038;SDS011;58692;43.212;27.908;2023-04-24T05:15:26;12.38;;;4.97;;
71038;SDS011;58692;43.212;27.908;2023-04-24T05:17:51;9.97;;;4.57;;
71038;SDS011;58692;43.212;27.908;2023-04-24T05:20:17;9.57;;;4.73;;
71038;SDS011;58692;43.212;27.908;2023-04-24T05:22:42;11.47;;;4.40;;
71038;SDS011;58692;43.212;27.908;2023-04-24T05:25:08;13.80;;;4.88;;
71038;SDS011;58692;43.212;27.908;2023-04-24T05:27:38;12.57;;;4.60;;
71038;SDS011;58692;43.212;27.908;2023-04-24T05:30:04;11.65;;;4.68;;
71038;SDS011;58692;43.212;27.908;2023-04-24T05:32:35;11.23;;;5.35;;
71038;SDS011;58692;43.212;27.908;2023-04-24T05:35:11;17.33;;;4.90;;
71038;SDS011;58692;43.212;27.908;2023-04-24T05:37:37;11.27;;;4.57;;
71038;SDS011;58692;43.212;27.908;2023-04-24T05:40:06;13.63;;;4.10;;
71038;SDS011;58692;43.212;27.908;2023-04-24T05:42:32;11.63;;;4.50;;
71038;SDS011;58692;43.212;27.908;2023-04-24T05:45:00;13.48;;;4.28;;
71038;SDS011;58692;43.212;27.908;2023-04-24T05:47:29;8.77;;;4.43;;
71038;SDS011;58692;43.212;27.908;2023-04-24T05:49:55;9.93;;;4.60;;
71038;SDS011;58692;43.212;27.908;2023-04-24T05:52:20;8.95;;;4.20;;
71038;SDS011;58692;43.212;27.908;2023-04-24T05:54:46;10.27;;;4.47;;
71038;SDS011;58692;43.212;27.908;2023-04-24T05:57:11;14.07;;;4.80;;
71038;SDS011;58692;43.212;27.908;2023-04-24T05:59:37;10.10;;;5.07;;
71038;SDS011;58692;43.212;27.908;2023-04-24T06:02:09;8.77;;;4.60;;
71038;SDS011;58692;43.212;27.908;2023-04-24T06:04:35;9.83;;;4.60;;
71038;SDS011;58692;43.212;27.908;2023-04-24T06:07:01;10.13;;;4.47;;
71038;SDS011;58692;43.212;27.908;2023-04-24T06:09:45;11.48;;;4.07;;
71038;SDS011;58692;43.212;27.908;2023-04-24T06:12:10;13.17;;;4.73;;
71038;SDS011;58692;43.212;27.908;2023-04-24T06:14:36;9.43;;;4.00;;
71038;SDS011;58692;43.212;27.908;2023-04-24T06:17:01;10.00;;;4.35;;
71038;SDS011;58692;43.212;27.908;2023-04-24T06:22:15;11.82;;;4.13;;
71038;SDS011;58692;43.212;27.908;2023-04-24T06:24:52;9.37;;;4.13;;
71038;SDS011;58692;43.212;27.908;2023-04-24T06:27:18;9.60;;;4.15;;
71038;SDS011;58692;43.212;27.908;2023-04-24T06:29:44;13.60;;;4.18;;
71038;SDS011;58692;43.212;27.908;2023-04-24T06:32:19;9.83;;;4.13;;
71038;SDS011;58692;43.212;27.908;2023-04-24T06:34:47;10.82;;;4.15;;
71038;SDS011;58692;43.212;27.908;2023-04-24T06:37:15;8.73;;;4.10;;
71038;SDS011;58692;43.212;27.908;2023-04-24T06:39:45;9.60;;;4.13;;
71038;SDS011;58692;43.212;27.908;2023-04-24T06:42:12;11.73;;;4.00;;
71038;SDS011;58692;43.212;27.908;2023-04-24T06:44:37;10.73;;;4.22;;
71038;SDS011;58692;43.212;27.908;2023-04-24T06:47:07;10.48;;;4.15;;
71038;SDS011;58692;43.212;27.908;2023-04-24T06:49:34;10.23;;;4.60;;
71038;SDS011;58692;43.212;27.908;2023-04-24T06:52:00;11.52;;;4.10;;
71038;SDS011;58692;43.212;27.908;2023-04-24T06:54:26;8.82;;;4.10;;
71038;SDS011;58692;43.212;27.908;2023-04-24T06:56:51;10.93;;;4.00;;
71038;SDS011;58692;43.212;27.908;2023-04-24T06:59:17;8.70;;;3.78;;
71038;SDS011;58692;43.212;27.908;2023-04-24T07:01:47;9.88;;;4.00;;
71038;SDS011;58692;43.212;27.908;2023-04-24T07:04:53;10.17;;;4.57;;
71038;SDS011;58692;43.212;27.908;2023-04-24T07:07:18;10.50;;;4.20;;
71038;SDS011;58692;43.212;27.908;2023-04-24T07:09:44;9.87;;;4.00;;
71038;SDS011;58692;43.212;27.908;2023-04-24T07:12:11;13.23;;;4.20;;
71038;SDS011;58692;43.212;27.908;2023-04-24T07:14:37;11.88;;;4.05;;
71038;SDS011;58692;43.212;27.908;2023-04-24T07:17:06;9.43;;;4.55;;
71038;SDS011;58692;43.212;27.908;2023-04-24T07:19:33;9.57;;;4.23;;
71038;SDS011;58692;43.212;27.908;2023-04-24T07:22:02;9.32;;;4.07;;
71038;SDS011;58692;43.212;27.908;2023-04-24T07:24:28;10.85;;;4.13;;
71038;SDS011;58692;43.212;27.908;2023-04-24T07:26:54;11.40;;;4.60;;
71038;SDS011;58692;43.212;27.908;2023-04-24T07:29:20;8.63;;;4.30;;
71038;SDS011;58692;43.212;27.908;2023-04-24T07:31:46;12.70;;;4.13;;
71038;SDS011;58692;43.212;27.908;2023-04-24T07:34:14;10.70;;;4.27;;
71038;SDS011;58692;43.212;27.908;2023-04-24T07:36:40;10.45;;;4.40;;
71038;SDS011;58692;43.212;27.908;2023-04-24T07:39:06;11.25;;;4.57;;
71038;SDS011;58692;43.212;27.908;2023-04-24T07:41:33;11.60;;;3.83;;
71038;SDS011;58692;43.212;27.908;2023-04-24T07:43:59;11.38;;;4.40;;
71038;SDS011;58692;43.212;27.908;2023-04-24T07:46:30;8.38;;;4.35;;
71038;SDS011;58692;43.212;27.908;2023-04-24T07:48:58;12.13;;;4.70;;
71038;SDS011;58692;43.212;27.908;2023-04-24T07:51:26;9.98;;;4.20;;
71038;SDS011;58692;43.212;27.908;2023-04-24T07:53:53;13.43;;;4.40;;
71038;SDS011;58692;43.212;27.908;2023-04-24T07:56:20;9.32;;;4.03;;
71038;SDS011;58692;43.212;27.908;2023-04-24T07:58:46;9.70;;;4.30;;
71038;SDS011;58692;43.212;27.908;2023-04-24T08:01:17;10.93;;;4.10;;
71038;SDS011;58692;43.212;27.908;2023-04-24T08:03:43;9.57;;;4.28;;
71038;SDS011;58692;43.212;27.908;2023-04-24T08:06:09;9.33;;;4.07;;
71038;SDS011;58692;43.212;27.908;2023-04-24T08:08:35;10.35;;;3.70;;
71038;SDS011;58692;43.212;27.908;2023-04-24T08:11:00;12.77;;;5.00;;
71038;SDS011;58692;43.212;27.908;2023-04-24T08:13:26;14.98;;;4.72;;
71038;SDS011;58692;43.212;27.908;2023-04-24T08:15:56;14.27;;;4.30;;
71038;SDS011;58692;43.212;27.908;2023-04-24T08:18:22;12.77;;;4.37;;
71038;SDS011;58692;43.212;27.908;2023-04-24T08:20:47;10.60;;;3.90;;
71038;SDS011;58692;43.212;27.908;2023-04-24T08:23:13;11.20;;;4.00;;
71038;SDS011;58692;43.212;27.908;2023-04-24T08:25:39;8.25;;;4.18;;
71038;SDS011;58692;43.212;27.908;2023-04-24T08:28:08;13.40;;;4.47;;
71038;SDS011;58692;43.212;27.908;2023-04-24T08:30:34;11.25;;;4.40;;
71038;SDS011;58692;43.212;27.908;2023-04-24T08:33:00;11.00;;;4.27;;
71038;SDS011;58692;43.212;27.908;2023-04-24T08:35:26;9.57;;;4.32;;
71038;SDS011;58692;43.212;27.908;2023-04-24T08:37:52;8.07;;;4.13;;
71038;SDS011;58692;43.212;27.908;2023-04-24T08:40:19;11.38;;;4.28;;
71038;SDS011;58692;43.212;27.908;2023-04-24T08:42:53;8.73;;;3.90;;
71038;SDS011;58692;43.212;27.908;2023-04-24T08:45:20;10.63;;;3.65;;
71038;SDS011;58692;43.212;27.908;2023-04-24T08:47:48;10.97;;;4.27;;
71038;SDS011;58692;43.212;27.908;2023-04-24T08:50:18;11.00;;;4.07;;
71038;SDS011;58692;43.212;27.908;2023-04-24T08:52:44;12.88;;;4.60;;
71038;SDS011;58692;43.212;27.908;2023-04-24T08:55:14;10.40;;;4.40;;
71038;SDS011;58692;43.212;27.908;2023-04-24T08:57:43;13.85;;;4.40;;
71038;SDS011;58692;43.212;27.908;2023-04-24T09:00:13;10.20;;;4.30;;
71038;SDS011;58692;43.212;27.908;2023-04-24T09:02:41;12.95;;;5.28;;
71038;SDS011;58692;43.212;27.908;2023-04-24T09:05:09;10.55;;;4.47;;
71038;SDS011;58692;43.212;27.908;2023-04-24T09:07:35;11.13;;;4.20;;
71038;SDS011;58692;43.212;27.908;2023-04-24T09:10:07;13.15;;;4.10;;
71038;SDS011;58692;43.212;27.908;2023-04-24T09:12:33;8.97;;;4.07;;
71038;SDS011;58692;43.212;27.908;2023-04-24T09:15:00;9.38;;;4.10;;
71038;SDS011;58692;43.212;27.908;2023-04-24T09:17:28;7.40;;;3.80;;
71038;SDS011;58692;43.212;27.908;2023-04-24T09:19:57;13.45;;;4.32;;
71038;SDS011;58692;43.212;27.908;2023-04-24T09:22:23;11.13;;;4.45;;
71038;SDS011;58692;43.212;27.908;2023-04-24T09:27:34;10.60;;;4.28;;
71038;SDS011;58692;43.212;27.908;2023-04-24T09:30:00;15.77;;;4.38;;
71038;SDS011;58692;43.212;27.908;2023-04-24T09:32:27;11.55;;;4.20;;
71038;SDS011;58692;43.212;27.908;2023-04-24T09:37:40;11.90;;;4.40;;
71038;SDS011;58692;43.212;27.908;2023-04-24T09:40:08;11.70;;;4.22;;
71038;SDS011;58692;43.212;27.908;2023-04-24T09:42:37;7.45;;;3.70;;
71038;SDS011;58692;43.212;27.908;2023-04-24T09:45:03;11.82;;;3.88;;
71038;SDS011;58692;43.212;27.908;2023-04-24T09:47:35;9.43;;;4.15;;
71038;SDS011;58692;43.212;27.908;2023-04-24T09:50:10;8.87;;;4.10;;
71038;SDS011;58692;43.212;27.908;2023-04-24T09:52:43;13.48;;;5.82;;
71038;SDS011;58692;43.212;27.908;2023-04-24T09:55:18;8.98;;;4.18;;
71038;SDS011;58692;43.212;27.908;2023-04-24T09:57:47;11.52;;;4.70;;
71038;SDS011;58692;43.212;27.908;2023-04-24T10:00:22;9.32;;;4.38;;
71038;SDS011;58692;43.212;27.908;2023-04-24T10:02:50;13.87;;;4.50;;
71038;SDS011;58692;43.212;27.908;2023-04-24T10:05:27;11.23;;;4.43;;
71038;SDS011;58692;43.212;27.908;2023-04-24T10:08:10;12.93;;;4.80;;
71038;SDS011;58692;43.212;27.908;2023-04-24T10:10:44;9.02;;;4.07;;
71038;SDS011;58692;43.212;27.908;2023-04-24T10:13:21;11.00;;;4.35;;
71038;SDS011;58692;43.212;27.908;2023-04-24T10:15:47;8.67;;;3.77;;
71038;SDS011;58692;43.212;27.908;2023-04-24T10:18:22;11.38;;;4.05;;
71038;SDS011;58692;43.212;27.908;2023-04-24T10:20:49;13.98;;;3.90;;
71038;SDS011;58692;43.212;27.908;2023-04-24T10:23:16;13.90;;;5.27;;
71038;SDS011;58692;43.212;27.908;2023-04-24T10:26:12;12.63;;;4.47;;
71038;SDS011;58692;43.212;27.908;2023-04-24T10:28:44;11.68;;;4.65;;
71038;SDS011;58692;43.212;27.908;2023-04-24T10:31:11;9.98;;;4.13;;
71038;SDS011;58692;43.212;27.908;2023-04-24T10:33:38;10.55;;;4.55;;
71038;SDS011;58692;43.212;27.908;2023-04-24T10:36:06;12.63;;;4.27;;
71038;SDS011;58692;43.212;27.908;2023-04-24T10:38:34;11.27;;;4.60;;
71038;SDS011;58692;43.212;27.908;2023-04-24T10:41:10;10.73;;;4.18;;
71038;SDS011;58692;43.212;27.908;2023-04-24T10:43:44;7.85;;;3.63;;
71038;SDS011;58692;43.212;27.908;2023-04-24T10:46:10;11.77;;;4.07;;
71038;SDS011;58692;43.212;27.908;2023-04-24T10:48:51;11.07;;;4.30;;
71038;SDS011;58692;43.212;27.908;2023-04-24T10:51:21;13.70;;;4.53;;
71038;SDS011;58692;43.212;27.908;2023-04-24T10:53:49;9.82;;;4.10;;
71038;SDS011;58692;43.212;27.908;2023-04-24T10:56:16;10.63;;;4.20;;
71038;SDS011;58692;43.212;27.908;2023-04-24T10:58:43;8.38;;;4.03;;
71038;SDS011;58692;43.212;27.908;2023-04-24T11:03:55;10.95;;;4.72;;
71038;SDS011;58692;43.212;27.908;2023-04-24T11:06:29;11.82;;;4.97;;
71038;SDS011;58692;43.212;27.908;2023-04-24T11:11:44;10.40;;;4.35;;
71038;SDS011;58692;43.212;27.908;2023-04-24T11:14:10;14.40;;;5.60;;
71038;SDS011;58692;43.212;27.908;2023-04-24T11:21:43;9.87;;;4.20;;
71038;SDS011;58692;43.212;27.908;2023-04-24T11:26:55;10.65;;;4.80;;
71038;SDS011;58692;43.212;27.908;2023-04-24T11:37:27;13.00;;;4.93;;
71038;SDS011;58692;43.212;27.908;2023-04-24T11:39:56;7.80;;;3.78;;
71038;SDS011;58692;43.212;27.908;2023-04-24T11:42:23;9.27;;;4.05;;
71038;SDS011;58692;43.212;27.908;2023-04-24T11:44:51;14.50;;;5.82;;
71038;SDS011;58692;43.212;27.908;2023-04-24T11:47:17;9.97;;;4.30;;
71038;SDS011;58692;43.212;27.908;2023-04-24T11:49:43;12.93;;;4.80;;
71038;SDS011;58692;43.212;27.908;2023-04-24T11:52:09;10.97;;;4.30;;
71038;SDS011;58692;43.212;27.908;2023-04-24T11:54:36;11.02;;;4.38;;
71038;SDS011;58692;43.212;27.908;2023-04-24T11:57:05;9.30;;;4.63;;
71038;SDS011;58692;43.212;27.908;2023-04-24T11:59:38;12.68;;;4.55;;
71038;SDS011;58692;43.212;27.908;2023-04-24T12:02:04;8.48;;;4.40;;
71038;SDS011;58692;43.212;27.908;2023-04-24T12:04:38;15.00;;;4.20;;
71038;SDS011;58692;43.212;27.908;2023-04-24T12:07:05;11.55;;;4.55;;
71038;SDS011;58692;43.212;27.908;2023-04-24T12:12:13;8.53;;;4.00;;
71038;SDS011;58692;43.212;27.908;2023-04-24T12:17:10;10.70;;;4.47;;
71038;SDS011;58692;43.212;27.908;2023-04-24T12:19:44;11.90;;;4.65;;
71038;SDS011;58692;43.212;27.908;2023-04-24T12:22:11;11.85;;;4.60;;
71038;SDS011;58692;43.212;27.908;2023-04-24T12:24:55;12.07;;;4.27;;
71038;SDS011;58692;43.212;27.908;2023-04-24T12:27:22;8.40;;;4.18;;
71038;SDS011;58692;43.212;27.908;2023-04-24T12:29:57;10.52;;;4.72;;
71038;SDS011;58692;43.212;27.908;2023-04-24T12:32:24;10.37;;;4.63;;
71038;SDS011;58692;43.212;27.908;2023-04-24T12:34:51;10.70;;;4.18;;
71038;SDS011;58692;43.212;27.908;2023-04-24T12:37:18;12.35;;;4.53;;
71038;SDS011;58692;43.212;27.908;2023-04-24T12:39:57;15.15;;;5.45;;
71038;SDS011;58692;43.212;27.908;2023-04-24T12:42:27;10.85;;;4.65;;
71038;SDS011;58692;43.212;27.908;2023-04-24T12:44:58;14.80;;;4.70;;
71038;SDS011;58692;43.212;27.908;2023-04-24T12:47:29;10.38;;;4.47;;
71038;SDS011;58692;43.212;27.908;2023-04-24T12:49:59;12.75;;;4.70;;
71038;SDS011;58692;43.212;27.908;2023-04-24T12:52:26;12.27;;;4.78;;
71038;SDS011;58692;43.212;27.908;2023-04-24T12:54:53;10.65;;;4.65;;
71038;SDS011;58692;43.212;27.908;2023-04-24T12:57:20;10.80;;;5.00;;
71038;SDS011;58692;43.212;27.908;2023-04-24T12:59:46;12.98;;;4.57;;
71038;SDS011;58692;43.212;27.908;2023-04-24T13:02:12;13.50;;;4.97;;
71038;SDS011;58692;43.212;27.908;2023-04-24T13:04:38;11.20;;;4.80;;
71038;SDS011;58692;43.212;27.908;2023-04-24T13:07:04;11.50;;;4.60;;
71038;SDS011;58692;43.212;27.908;2023-04-24T13:09:31;11.15;;;4.93;;
71038;SDS011;58692;43.212;27.908;2023-04-24T13:11:58;11.70;;;4.87;;
71038;SDS011;58692;43.212;27.908;2023-04-24T13:14:23;14.93;;;5.03;;
71038;SDS011;58692;43.212;27.908;2023-04-24T13:16:49;16.43;;;5.47;;
71038;SDS011;58692;43.212;27.908;2023-04-24T13:19:14;12.37;;;5.00;;
71038;SDS011;58692;43.212;27.908;2023-04-24T13:21:40;10.40;;;5.40;;
71038;SDS011;58692;43.212;27.908;2023-04-24T13:24:06;13.00;;;5.35;;
71038;SDS011;58692;43.212;27.908;2023-04-24T13:26:33;13.50;;;5.45;;
71038;SDS011;58692;43.212;27.908;2023-04-24T13:28:58;14.43;;;5.27;;
71038;SDS011;58692;43.212;27.908;2023-04-24T13:31:24;12.93;;;4.93;;
71038;SDS011;58692;43.212;27.908;2023-04-24T13:33:49;9.83;;;4.90;;
71038;SDS011;58692;43.212;27.908;2023-04-24T13:36:15;12.57;;;4.70;;
71038;SDS011;58692;43.212;27.908;2023-04-24T13:38:42;12.35;;;5.05;;
71038;SDS011;58692;43.212;27.908;2023-04-24T13:41:09;9.37;;;4.67;;
71038;SDS011;58692;43.212;27.908;2023-04-24T13:43:35;9.43;;;4.70;;
71038;SDS011;58692;43.212;27.908;2023-04-24T13:46:01;11.95;;;4.68;;
71038;SDS011;58692;43.212;27.908;2023-04-24T13:48:28;11.88;;;5.00;;
71038;SDS011;58692;43.212;27.908;2023-04-24T13:50:55;12.27;;;4.63;;
71038;SDS011;58692;43.212;27.908;2023-04-24T13:53:22;12.10;;;4.63;;
71038;SDS011;58692;43.212;27.908;2023-04-24T13:55:57;11.68;;;4.10;;
71038;SDS011;58692;43.212;27.908;2023-04-24T13:58:22;10.40;;;4.07;;
71038;SDS011;58692;43.212;27.908;2023-04-24T14:00:48;9.80;;;4.18;;
71038;SDS011;58692;43.212;27.908;2023-04-24T14:03:14;13.27;;;4.60;;
71038;SDS011;58692;43.212;27.908;2023-04-24T14:05:40;9.77;;;4.68;;
71038;SDS011;58692;43.212;27.908;2023-04-24T14:08:05;9.77;;;4.70;;
71038;SDS011;58692;43.212;27.908;2023-04-24T14:10:31;12.00;;;5.10;;
71038;SDS011;58692;43.212;27.908;2023-04-24T14:12:59;12.52;;;4.95;;
71038;SDS011;58692;43.212;27.908;2023-04-24T14:15:26;11.77;;;5.03;;
71038;SDS011;58692;43.212;27.908;2023-04-24T14:17:52;14.55;;;5.93;;
71038;SDS011;58692;43.212;27.908;2023-04-24T14:20:18;13.48;;;5.35;;
71038;SDS011;58692;43.212;27.908;2023-04-24T14:22:53;10.73;;;4.80;;
71038;SDS011;58692;43.212;27.908;2023-04-24T14:25:24;11.30;;;4.25;;
71038;SDS011;58692;43.212;27.908;2023-04-24T14:27:55;10.80;;;4.60;;
71038;SDS011;58692;43.212;27.908;2023-04-24T14:30:22;13.05;;;4.70;;
71038;SDS011;58692;43.212;27.908;2023-04-24T14:32:58;10.90;;;5.13;;
71038;SDS011;58692;43.212;27.908;2023-04-24T14:35:23;12.03;;;4.70;;
71038;SDS011;58692;43.212;27.908;2023-04-24T14:37:49;14.23;;;5.27;;
71038;SDS011;58692;43.212;27.908;2023-04-24T14:40:16;10.55;;;4.57;;
71038;SDS011;58692;43.212;27.908;2023-04-24T14:42:41;9.82;;;4.63;;
71038;SDS011;58692;43.212;27.908;2023-04-24T14:45:10;10.38;;;4.63;;
71038;SDS011;58692;43.212;27.908;2023-04-24T14:47:36;12.53;;;5.20;;
71038;SDS011;58692;43.212;27.908;2023-04-24T14:50:03;9.98;;;4.50;;
71038;SDS011;58692;43.212;27.908;2023-04-24T14:52:30;12.43;;;5.15;;
71038;SDS011;58692;43.212;27.908;2023-04-24T14:54:55;9.10;;;4.33;;
71038;SDS011;58692;43.212;27.908;2023-04-24T14:57:21;10.77;;;5.00;;